Time;durP1;ratioP1;P1;durP2;ratioP2;P2;SDS_P1;SDS_P2;PMS_P1;PMS_P2;Temp;Humidity;BMP_temperature;BMP_pressure;BME280_temperature;BME280_humidity;BME280_pressure;Samples;Min_cycle;Max_cycle;Signal;HPM_P1;HPM_P2
2022/10/08 00:02:19;;;;;;;;;;;;;;;13.07;100.00;100977.53;10066238;29;19928;-69
2022/10/08 00:07:22;;;;;;;;;;;;;;;13.06;100.00;100957.59;10066333;29;20026;-69
2022/10/08 00:12:27;;;;;;;;;;;;;;;13.02;100.00;100955.00;10066121;29;19928;-68
2022/10/08 00:17:30;;;;;;;;;;;;;;;13.13;100.00;100946.19;10065657;29;20295;-75
2022/10/08 00:22:33;;;;;;;;;;;;;;;13.21;100.00;100938.28;10066126;29;19995;-72
2022/10/08 00:27:37;;;;;;;;;;;;;;;13.21;100.00;100926.13;10065587;29;19928;-77
2022/10/08 00:32:40;;;;;;;;;;;;;;;13.11;100.00;100921.03;10065157;29;19936;-73
2022/10/08 00:37:43;;;;;;;;;;;;;;;13.07;100.00;100919.34;10065214;29;20031;-71
2022/10/08 00:42:48;;;;;;;;;;;;;;;12.99;100.00;100914.19;10064654;29;20331;-73
2022/10/08 00:47:55;;;;;;;;;;;;;;;12.94;100.00;100907.31;10064687;29;20006;-73
2022/10/08 00:53:01;;;;;;;;;;;;;;;12.91;100.00;100899.53;10064969;29;19928;-74
2022/10/08 00:58:09;;;;;;;;;;;;;;;12.86;100.00;100899.56;10064409;29;20340;-72
2022/10/08 01:03:13;;;;;;;;;;;;;;;12.82;100.00;100886.59;10063897;29;19932;-72
2022/10/08 01:08:21;;;;;;;;;;;;;;;12.88;100.00;100886.50;10063947;29;19928;-71
2022/10/08 01:13:31;;;;;;;;;;;;;;;12.87;100.00;100879.59;10063891;29;19938;-73
2022/10/08 01:18:39;;;;;;;;;;;;;;;12.77;100.00;100873.59;10063571;29;19939;-72
2022/10/08 01:23:58;;;;;;;;;;;;;;;12.84;100.00;100861.41;10063459;29;19940;-73
2022/10/08 01:29:05;;;;;;;;;;;;;;;12.89;100.00;100852.63;10062612;29;19995;-72
2022/10/08 01:34:09;;;;;;;;;;;;;;;12.91;100.00;100844.81;10062960;29;20300;-73
2022/10/08 01:39:16;;;;;;;;;;;;;;;12.92;100.00;100846.53;10062762;29;19988;-73
2022/10/08 01:44:23;;;;;;;;;;;;;;;12.96;100.00;100838.66;10062820;29;20032;-73
2022/10/08 01:49:30;;;;;;;;;;;;;;;12.97;100.00;100827.34;10062674;29;19935;-74
2022/10/08 01:54:34;;;;;;;;;;;;;;;12.84;100.00;100832.75;10062399;29;19928;-71
2022/10/08 01:59:41;;;;;;;;;;;;;;;12.71;100.00;100832.88;10062110;29;19928;-73
2022/10/08 02:04:44;;;;;;;;;;;;;;;12.66;100.00;100824.25;10062412;29;20019;-71
2022/10/08 02:09:50;;;;;;;;;;;;;;;12.64;100.00;100819.94;10062085;29;19935;-70
2022/10/08 02:14:55;;;;;;;;;;;;;;;12.63;100.00;100826.03;10062122;29;20270;-73
2022/10/08 02:20:00;;;;;;;;;;;;;;;12.70;100.00;100827.69;10061794;29;20425;-74
2022/10/08 02:25:10;;;;;;;;;;;;;;;12.64;100.00;100819.94;10061718;29;19992;-73
2022/10/08 02:30:14;;;;;;;;;;;;;;;12.59;100.00;100816.53;10061929;29;19936;-73
2022/10/08 02:35:24;;;;;;;;;;;;;;;12.61;100.00;100807.78;10061612;29;19928;-74
2022/10/08 02:40:29;;;;;;;;;;;;;;;12.73;100.00;100793.78;10061352;29;20027;-76
2022/10/08 02:45:37;;;;;;;;;;;;;;;12.73;100.00;100791.19;10069273;29;19928;-70
2022/10/08 02:50:42;;;;;;;;;;;;;;;12.75;100.00;100792.03;10069300;29;20289;-74
2022/10/08 02:55:50;;;;;;;;;;;;;;;12.72;100.00;100794.66;10068746;29;20015;-72
2022/10/08 03:00:56;;;;;;;;;;;;;;;12.73;100.00;100793.78;10068432;29;19928;-70
2022/10/08 03:06:02;;;;;;;;;;;;;;;12.77;100.00;100795.47;10068451;29;19935;-75
2022/10/08 03:11:05;;;;;;;;;;;;;;;12.73;100.00;100793.78;10067920;29;19928;-71
2022/10/08 03:16:12;;;;;;;;;;;;;;;12.66;100.00;100787.81;10068019;29;20003;-76
2022/10/08 03:21:15;;;;;;;;;;;;;;;12.66;100.00;100781.72;10067869;29;20339;-71
2022/10/08 03:26:19;;;;;;;;;;;;;;;12.62;100.00;100791.31;10067624;29;20247;-74
2022/10/08 03:31:23;;;;;;;;;;;;;;;12.54;100.00;100782.72;10067401;29;20053;-71
2022/10/08 03:36:26;;;;;;;;;;;;;;;12.49;100.00;100768.88;10067255;29;19934;-71
2022/10/08 03:41:30;;;;;;;;;;;;;;;12.42;100.00;100766.38;9730205;29;9999728;-69
2022/10/08 03:46:35;;;;;;;;;;;;;;;12.35;100.00;100764.72;10063800;29;19936;-68
2022/10/08 03:51:38;;;;;;;;;;;;;;;12.36;100.00;100763.81;10063117;29;20019;-68
2022/10/08 03:56:41;;;;;;;;;;;;;;;12.44;100.00;100764.63;10063630;29;19943;-67
2022/10/08 04:01:45;;;;;;;;;;;;;;;12.52;100.00;100765.38;10063071;29;19996;-69
2022/10/08 04:06:49;;;;;;;;;;;;;;;12.62;100.00;100759.19;10063042;29;19980;-68
2022/10/08 04:11:52;;;;;;;;;;;;;;;12.67;100.00;100762.59;10063267;29;19928;-68
2022/10/08 04:16:56;;;;;;;;;;;;;;;12.64;100.00;100760.03;10062718;29;19932;-68
2022/10/08 04:21:59;;;;;;;;;;;;;;;12.65;100.00;100759.16;10062515;29;19932;-69
2022/10/08 04:27:02;;;;;;;;;;;;;;;12.65;100.00;100757.41;10062781;29;19928;-71
2022/10/08 04:32:07;;;;;;;;;;;;;;;12.64;100.00;100757.44;10062490;29;19932;-68
2022/10/08 04:37:10;;;;;;;;;;;;;;;12.67;100.00;100757.38;10062005;29;19954;-69
2022/10/08 04:42:13;;;;;;;;;;;;;;;12.65;100.00;100751.34;10061571;29;20335;-69
2022/10/08 04:47:17;;;;;;;;;;;;;;;12.65;100.00;100753.94;10061617;29;19928;-69
2022/10/08 04:52:20;;;;;;;;;;;;;;;12.68;100.00;100753.91;10062307;29;20221;-72
2022/10/08 04:57:23;;;;;;;;;;;;;;;12.73;100.00;100745.16;10064170;29;19928;-73
2022/10/08 05:02:28;;;;;;;;;;;;;;;12.74;100.00;100743.41;10063919;29;19960;-69
2022/10/08 05:07:31;;;;;;;;;;;;;;;12.75;100.00;100746.00;10063228;29;19990;-70
2022/10/08 05:12:34;;;;;;;;;;;;;;;12.80;100.00;100740.75;10063971;29;20007;-69
2022/10/08 05:17:38;;;;;;;;;;;;;;;12.86;100.00;100742.41;10063699;29;20365;-69
2022/10/08 05:22:41;;;;;;;;;;;;;;;12.86;100.00;100740.66;10063276;29;20243;-71
2022/10/08 05:27:44;;;;;;;;;;;;;;;12.87;100.00;100745.00;10063414;29;20023;-74
2022/10/08 05:32:49;;;;;;;;;;;;;;;12.80;100.00;100744.19;10063427;29;19932;-71
2022/10/08 05:37:52;;;;;;;;;;;;;;;12.79;100.00;100752.03;10063102;29;20429;-74
2022/10/08 05:42:55;;;;;;;;;;;;;;;12.80;100.00;100752.00;10062750;29;20294;-70
2022/10/08 05:47:59;;;;;;;;;;;;;;;12.84;100.00;100754.59;9698215;29;10000031;-65
2022/10/08 05:53:02;;;;;;;;;;;;;;;12.82;100.00;100765.03;10059592;29;19964;-66
2022/10/08 05:58:11;;;;;;;;;;;;;;;12.82;100.00;100771.97;10059099;29;19928;-63
2022/10/08 06:03:15;;;;;;;;;;;;;;;12.81;100.00;100771.09;10059248;29;20032;-65
2022/10/08 06:08:18;;;;;;;;;;;;;;;12.85;100.00;100777.16;10058774;29;19932;-65
2022/10/08 06:13:22;;;;;;;;;;;;;;;12.92;100.00;100769.25;10058839;29;20013;-66
2022/10/08 06:18:27;;;;;;;;;;;;;;;12.98;100.00;100766.53;10058381;29;20353;-71
2022/10/08 06:23:30;;;;;;;;;;;;;;;13.19;100.00;100773.22;10058524;29;19928;-70
2022/10/08 06:28:34;;;;;;;;;;;;;;;13.49;100.00;100760.63;10059157;29;19959;-69
2022/10/08 06:33:39;;;;;;;;;;;;;;;13.61;100.00;100762.19;10061906;29;19928;-71
2022/10/08 06:38:42;;;;;;;;;;;;;;;13.80;100.00;100772.25;10061617;29;19928;-70
2022/10/08 06:43:45;;;;;;;;;;;;;;;13.95;100.00;100768.53;10061639;29;19928;-69
2022/10/08 06:48:49;;;;;;;;;;;;;;;14.07;100.00;100770.94;10061502;29;19939;-71
2022/10/08 06:53:54;;;;;;;;;;;;;;;14.24;100.00;100768.88;10061280;29;19940;-72
2022/10/08 06:58:57;;;;;;;;;;;;;;;14.41;100.00;100763.41;10061048;29;19971;-72
2022/10/08 07:04:03;;;;;;;;;;;;;;;14.55;100.00;100764.84;10060896;29;19938;-69
2022/10/08 07:09:07;;;;;;;;;;;;;;;14.66;100.00;100765.50;10061181;29;19928;-70
2022/10/08 07:14:10;;;;;;;;;;;;;;;14.77;100.00;100760.06;10060861;29;20369;-69
2022/10/08 07:19:15;;;;;;;;;;;;;;;14.84;100.00;100769.50;10060652;29;20023;-70
2022/10/08 07:24:18;;;;;;;;;;;;;;;14.96;100.00;100764.00;10060755;29;19929;-73
2022/10/08 07:29:23;;;;;;;;;;;;;;;15.02;100.00;100762.09;10064601;29;20015;-69
2022/10/08 07:34:28;;;;;;;;;;;;;;;15.10;100.00;100755.84;10067453;29;19938;-71
2022/10/08 07:39:31;;;;;;;;;;;;;;;15.22;100.00;100750.34;10067587;29;19999;-70
2022/10/08 07:44:34;;;;;;;;;;;;;;;15.27;100.00;100738.91;10066915;29;19987;-71
2022/10/08 07:49:38;;;;;;;;;;;;;;;15.37;100.00;100739.53;10066976;29;20429;-70
2022/10/08 07:54:44;;;;;;;;;;;;;;;15.49;100.00;100739.28;10066686;29;20283;-76
2022/10/08 07:59:47;;;;;;;;;;;;;;;15.58;100.00;100728.59;10067171;29;19980;-71
2022/10/08 08:04:51;;;;;;;;;;;;;;;15.66;100.00;100722.28;10066343;29;20301;-69
2022/10/08 08:09:54;;;;;;;;;;;;;;;15.78;100.00;100723.72;10066157;29;19928;-71
2022/10/08 08:14:57;;;;;;;;;;;;;;;15.93;100.00;100716.31;10066320;29;19928;-71
2022/10/08 08:20:02;;;;;;;;;;;;;;;16.02;100.00;100721.31;10065850;29;19928;-71
2022/10/08 08:25:05;;;;;;;;;;;;;;;16.08;100.00;100715.91;10065759;29;19932;-72
2022/10/08 08:30:09;;;;;;;;;;;;;;;16.18;100.00;100716.53;10065441;29;19928;-70
2022/10/08 08:35:13;;;;;;;;;;;;;;;16.30;100.00;100710.97;10065228;29;20012;-69
2022/10/08 08:40:16;;;;;;;;;;;;;;;16.48;100.00;100710.47;10064997;29;19932;-72
2022/10/08 08:45:25;;;;;;;;;;;;;;;16.64;100.00;100714.38;10064910;29;20420;-74
2022/10/08 08:50:51;;;;;;;;;;;;;;;16.78;100.00;100703.47;10064401;29;20326;-70
2022/10/08 08:55:55;;;;;;;;;;;;;;;17.01;100.00;100706.28;10064501;29;20254;-71
2022/10/08 09:01:03;;;;;;;;;;;;;;;17.12;100.00;100694.53;10063919;29;20000;-71
2022/10/08 09:06:09;;;;;;;;;;;;;;;17.34;100.00;100692.09;10064363;29;19928;-69
2022/10/08 09:11:13;;;;;;;;;;;;;;;17.46;100.00;100693.47;10064078;29;19928;-70
2022/10/08 09:16:17;;;;;;;;;;;;;;;17.58;100.00;100691.31;10063786;29;19934;-71
2022/10/08 09:21:24;;;;;;;;;;;;;;;17.72;100.00;100688.22;10063246;29;20014;-71
2022/10/08 09:26:30;;;;;;;;;;;;;;;17.72;100.00;100685.59;10063670;29;20019;-70
2022/10/08 09:31:36;;;;;;;;;;;;;;;17.87;100.00;100700.84;10063266;29;20023;-72
2022/10/08 09:36:42;;;;;;;;;;;;;;;18.03;100.00;100699.41;10063031;29;19964;-70
2022/10/08 09:41:46;;;;;;;;;;;;;;;18.21;100.00;100686.47;10062556;29;19936;-71
2022/10/08 09:47:03;;;;;;;;;;;;;;;18.47;99.97;100676.78;10062789;29;19932;-70
2022/10/08 09:52:13;;;;;;;;;;;;;;;18.88;96.13;100668.22;10062393;29;20341;-70
2022/10/08 09:57:20;;;;;;;;;;;;;;;19.14;94.06;100657.47;10062858;29;19929;-71
2022/10/08 10:02:31;;;;;;;;;;;;;;;19.24;93.22;100664.13;10062018;29;20408;-69
2022/10/08 10:07:43;;;;;;;;;;;;;;;19.32;92.07;100659.41;10062126;29;20022;-72
2022/10/08 10:12:49;;;;;;;;;;;;;;;19.25;91.05;100656.16;10062208;29;20027;-70
2022/10/08 10:17:54;;;;;;;;;;;;;;;19.31;91.97;100648.03;10062007;29;19938;-69
2022/10/08 10:23:02;;;;;;;;;;;;;;;19.37;92.25;100654.81;10061909;29;19970;-73
2022/10/08 10:28:08;;;;;;;;;;;;;;;19.66;92.21;100643.03;10061688;29;19992;-69
2022/10/08 10:33:14;;;;;;;;;;;;;;;19.77;91.52;100631.16;10061802;29;19928;-71
2022/10/08 10:38:22;;;;;;;;;;;;;;;19.77;90.31;100625.88;10061524;29;19928;-76
2022/10/08 10:43:30;;;;;;;;;;;;;;;19.90;89.22;100619.13;10061534;29;20030;-72
2022/10/08 10:48:34;;;;;;;;;;;;;;;19.92;88.14;100616.44;10061468;29;19928;-71
2022/10/08 10:53:46;;;;;;;;;;;;;;;19.70;88.75;100618.31;10061405;29;20019;-74
2022/10/08 10:59:05;;;;;;;;;;;;;;;19.55;88.95;100604.88;10061258;29;20273;-70
2022/10/08 11:04:12;;;;;;;;;;;;;;;19.36;90.36;100605.72;10064814;29;19928;-72
2022/10/08 11:09:20;;;;;;;;;;;;;;;19.20;91.05;100597.59;10068298;29;19958;-70
2022/10/08 11:14:33;;;;;;;;;;;;;;;19.09;91.71;100598.91;10068154;29;19928;-68
2022/10/08 11:19:41;;;;;;;;;;;;;;;18.96;92.13;100597.72;10068013;29;19988;-73
2022/10/08 11:24:51;;;;;;;;;;;;;;;18.89;92.40;100591.84;10067795;29;19935;-72
2022/10/08 11:29:59;;;;;;;;;;;;;;;18.96;92.34;100593.31;10067610;29;19934;-70
2022/10/08 11:35:13;;;;;;;;;;;;;;;18.97;92.33;100584.50;10067425;29;19939;-71
2022/10/08 11:40:21;;;;;;;;;;;;;;;19.03;92.45;100586.03;10067043;29;20437;-72
2022/10/08 11:45:35;;;;;;;;;;;;;;;19.14;92.37;100579.41;10066744;29;19944;-71
2022/10/08 11:50:39;;;;;;;;;;;;;;;19.07;92.61;100579.72;10068040;29;19978;-69
2022/10/08 11:55:51;;;;;;;;;;;;;;;18.99;93.13;100561.63;10066771;29;19983;-73
2022/10/08 12:01:01;;;;;;;;;;;;;;;19.07;92.97;100566.59;10066335;29;20019;-70
2022/10/08 12:06:13;;;;;;;;;;;;;;;19.29;91.95;100562.13;10066276;29;20241;-71
2022/10/08 12:11:36;;;;;;;;;;;;;;;19.28;92.09;100556.00;10066151;29;20035;-72
2022/10/08 12:16:56;;;;;;;;;;;;;;;19.50;91.18;100548.03;10065803;29;20409;-69
2022/10/08 12:22:01;;;;;;;;;;;;;;;20.06;88.70;100540.25;10066392;29;20394;-69
2022/10/08 12:27:19;;;;;;;;;;;;;;;20.31;88.04;100544.34;10065728;29;20011;-69
2022/10/08 12:32:23;;;;;;;;;;;;;;;21.21;84.64;100535.56;10065512;29;19928;-70
2022/10/08 12:37:53;;;;;;;;;;;;;;;21.93;81.12;100529.13;10065098;29;19928;-71
2022/10/08 12:43:04;;;;;;;;;;;;;;;22.32;77.36;100542.78;10032596;29;19928;-73
2022/10/08 12:48:11;;;;;;;;;;;;;;;22.11;78.30;100543.97;10064894;29;19935;-70
2022/10/08 12:53:16;;;;;;;;;;;;;;;21.21;80.52;100536.41;10064607;29;19987;-71
2022/10/08 12:58:22;;;;;;;;;;;;;;;20.74;82.57;100542.31;10064397;29;19938;-70
2022/10/08 13:03:25;;;;;;;;;;;;;;;20.56;83.61;100541.41;10064057;29;20018;-69
2022/10/08 13:08:30;;;;;;;;;;;;;;;20.20;85.09;100522.91;10064021;29;19954;-71
2022/10/08 13:13:47;;;;;;;;;;;;;;;20.86;82.31;100521.47;10063688;29;20041;-70
2022/10/08 13:18:52;;;;;;;;;;;;;;;20.41;84.30;100524.56;10063792;29;19991;-71
2022/10/08 13:23:55;;;;;;;;;;;;;;;20.31;84.81;100515.34;10063403;29;19988;-73
2022/10/08 13:29:13;;;;;;;;;;;;;;;20.19;85.20;100518.56;10062838;29;19987;-70
2022/10/08 13:34:18;;;;;;;;;;;;;;;19.98;86.13;100510.78;10063286;29;19928;-70
2022/10/08 13:39:22;;;;;;;;;;;;;;;19.94;85.92;100509.19;10062922;29;19932;-71
2022/10/08 13:44:26;;;;;;;;;;;;;;;19.92;85.96;100514.53;10062673;29;19928;-70
2022/10/08 13:49:32;;;;;;;;;;;;;;;19.88;86.23;100515.59;10062707;29;19938;-71
2022/10/08 13:54:35;;;;;;;;;;;;;;;19.74;86.18;100507.50;10062565;29;19928;-72
2022/10/08 13:59:44;;;;;;;;;;;;;;;19.58;86.63;100505.59;10062321;29;19928;-67
2022/10/08 14:04:49;;;;;;;;;;;;;;;19.56;86.76;100503.03;10062123;29;19936;-68
2022/10/08 14:09:53;;;;;;;;;;;;;;;19.49;87.06;100494.56;10061936;29;19938;-71
2022/10/08 14:14:56;;;;;;;;;;;;;;;19.37;87.61;100496.88;10062086;29;20246;-70
2022/10/08 14:20:00;;;;;;;;;;;;;;;19.33;88.71;100500.53;10061895;29;19928;-68
2022/10/08 14:25:04;;;;;;;;;;;;;;;19.37;89.46;100491.59;10061599;29;20023;-70
2022/10/08 14:30:07;;;;;;;;;;;;;;;19.40;90.18;100491.47;10061519;29;19974;-71
2022/10/08 14:35:12;;;;;;;;;;;;;;;19.37;90.75;100483.69;10061501;29;19935;-74
2022/10/08 14:40:17;;;;;;;;;;;;;;;19.34;91.81;100483.84;10068902;29;20368;-71
2022/10/08 14:45:21;;;;;;;;;;;;;;;19.30;92.41;100480.50;10069462;29;20015;-70
2022/10/08 14:50:26;;;;;;;;;;;;;;;19.24;93.09;100482.50;10068863;29;20252;-71
2022/10/08 14:55:29;;;;;;;;;;;;;;;19.22;93.11;100479.09;10068969;29;19960;-71
2022/10/08 15:00:32;;;;;;;;;;;;;;;19.16;92.04;100474.94;10068456;29;20366;-72
2022/10/08 15:05:37;;;;;;;;;;;;;;;19.11;91.95;100468.16;10068428;29;20030;-71
2022/10/08 15:10:40;;;;;;;;;;;;;;;19.06;92.18;100473.63;10068092;29;19934;-70
2022/10/08 15:15:43;;;;;;;;;;;;;;;19.00;92.76;100473.88;10067915;29;19974;-73
2022/10/08 15:20:54;;;;;;;;;;;;;;;18.92;93.18;100472.47;10067980;29;19938;-70
2022/10/08 15:25:58;;;;;;;;;;;;;;;18.89;93.63;100475.25;10067789;29;20019;-73
2022/10/08 15:31:03;;;;;;;;;;;;;;;18.83;94.02;100468.47;10067698;29;19932;-69
2022/10/08 15:36:17;;;;;;;;;;;;;;;18.76;94.84;100464.38;10067058;29;19956;-72
2022/10/08 15:41:20;;;;;;;;;;;;;;;18.69;95.69;100462.09;10066876;29;19932;-69
2022/10/08 15:46:27;;;;;;;;;;;;;;;18.75;96.38;100469.72;10067159;29;20083;-68
2022/10/08 15:51:32;;;;;;;;;;;;;;;18.66;97.48;100478.84;9393897;29;10000710;-68
2022/10/08 15:56:35;;;;;;;;;;;;;;;18.63;98.15;100484.22;10063541;29;19935;-65
2022/10/08 16:01:38;;;;;;;;;;;;;;;18.61;98.66;100495.72;10068262;29;20015;-68
2022/10/08 16:06:44;;;;;;;;;;;;;;;18.56;99.64;100485.41;10063628;29;20019;-66
2022/10/08 16:11:47;;;;;;;;;;;;;;;18.53;100.00;100489.91;10062860;29;19928;-67
2022/10/08 16:16:51;;;;;;;;;;;;;;;18.50;100.00;100493.50;10062765;29;19935;-68
2022/10/08 16:21:57;;;;;;;;;;;;;;;18.49;100.00;100493.56;10062442;29;19939;-68
2022/10/08 16:27:00;;;;;;;;;;;;;;;18.53;100.00;100497.81;10065179;29;19934;-65
2022/10/08 16:32:03;;;;;;;;;;;;;;;18.38;100.00;100518.50;10061478;29;19928;-69
2022/10/08 16:37:07;;;;;;;;;;;;;;;18.06;100.00;100539.91;10062435;29;19963;-72
2022/10/08 16:42:10;;;;;;;;;;;;;;;17.89;100.00;100547.56;10061860;29;19939;-68
2022/10/08 16:47:14;;;;;;;;;;;;;;;17.81;100.00;100564.50;10061636;29;20358;-73
2022/10/08 16:52:18;;;;;;;;;;;;;;;17.60;100.00;100568.72;10061464;29;20318;-69
2022/10/08 16:57:21;;;;;;;;;;;;;;;17.34;100.00;100566.16;10061351;29;20079;-71
2022/10/08 17:02:24;;;;;;;;;;;;;;;17.30;100.00;100572.41;10061396;29;20007;-70
2022/10/08 17:07:30;;;;;;;;;;;;;;;17.26;100.00;100574.28;10060978;29;20342;-71
2022/10/08 17:12:33;;;;;;;;;;;;;;;17.17;100.00;100577.19;10060832;29;20026;-67
2022/10/08 17:17:36;;;;;;;;;;;;;;;17.03;100.00;100589.91;10060633;29;19938;-67
2022/10/08 17:22:41;;;;;;;;;;;;;;;16.87;100.00;100593.09;10060431;29;19991;-68
2022/10/08 17:27:44;;;;;;;;;;;;;;;16.84;100.00;100596.66;10060382;29;19942;-69
2022/10/08 17:32:47;;;;;;;;;;;;;;;16.86;100.00;100597.47;10060229;29;19928;-69
2022/10/08 17:37:52;;;;;;;;;;;;;;;16.94;100.00;100605.97;10059876;29;19942;-68
2022/10/08 17:42:55;;;;;;;;;;;;;;;16.97;100.00;100610.22;10053466;29;20011;-72
2022/10/08 17:47:58;;;;;;;;;;;;;;;16.98;100.00;100623.28;10027601;29;20255;-67
2022/10/08 17:53:02;;;;;;;;;;;;;;;16.96;100.00;100621.63;10045511;29;19938;-68
2022/10/08 17:58:07;;;;;;;;;;;;;;;16.97;100.00;100625.97;10059673;29;19928;-68
2022/10/08 18:03:10;;;;;;;;;;;;;;;16.98;100.00;100628.53;10059240;29;19939;-69
2022/10/08 18:08:15;;;;;;;;;;;;;;;17.02;100.00;100626.66;10058934;29;19940;-71
2022/10/08 18:13:18;;;;;;;;;;;;;;;16.94;100.00;100633.94;10058596;29;19967;-68
2022/10/08 18:18:21;;;;;;;;;;;;;;;16.86;100.00;100628.91;10058824;29;20018;-68
2022/10/08 18:23:27;;;;;;;;;;;;;;;16.82;100.00;100626.47;10058653;29;20258;-70
2022/10/08 18:28:30;;;;;;;;;;;;;;;16.80;100.00;100631.75;10058949;29;19928;-66
2022/10/08 18:33:34;;;;;;;;;;;;;;;16.79;100.00;100639.66;10058338;29;19963;-66
2022/10/08 18:38:38;;;;;;;;;;;;;;;16.77;100.00;100649.34;10058462;29;19964;-67
2022/10/08 18:43:42;;;;;;;;;;;;;;;16.76;100.00;100652.84;10058228;29;19932;-68
2022/10/08 18:48:45;;;;;;;;;;;;;;;16.61;100.00;100648.94;10058247;29;20358;-68
2022/10/08 18:53:50;;;;;;;;;;;;;;;16.50;100.00;100640.53;10058428;29;20003;-70
2022/10/08 18:58:53;;;;;;;;;;;;;;;16.44;100.00;100650.31;10058439;29;19966;-67
2022/10/08 19:03:58;;;;;;;;;;;;;;;16.44;100.00;100651.19;10057698;29;19939;-65
2022/10/08 19:09:05;;;;;;;;;;;;;;;16.46;100.00;100656.38;10057373;29;20234;-66
2022/10/08 19:14:10;;;;;;;;;;;;;;;16.37;100.00;100665.34;10057801;29;20039;-70
2022/10/08 19:19:14;;;;;;;;;;;;;;;16.34;100.00;100675.06;10057758;29;19983;-69
2022/10/08 19:24:20;;;;;;;;;;;;;;;16.27;100.00;100682.25;10060449;29;19928;-67
2022/10/08 19:29:24;;;;;;;;;;;;;;;16.26;100.00;100684.88;10064560;29;19971;-66
2022/10/08 19:34:27;;;;;;;;;;;;;;;16.20;100.00;100688.53;10064271;29;19939;-72
2022/10/08 19:39:32;;;;;;;;;;;;;;;16.23;100.00;100696.31;10064208;29;19955;-69
2022/10/08 19:44:35;;;;;;;;;;;;;;;16.19;100.00;100703.41;10064024;29;19978;-68
2022/10/08 19:49:39;;;;;;;;;;;;;;;16.16;100.00;100708.72;10064200;29;19928;-68
2022/10/08 19:54:43;;;;;;;;;;;;;;;16.17;100.00;100714.81;10063796;29;20334;-69
2022/10/08 19:59:46;;;;;;;;;;;;;;;16.14;100.00;100718.38;10063532;29;19939;-69
2022/10/08 20:04:49;;;;;;;;;;;;;;;16.14;100.00;100725.38;10063259;29;20039;-63
2022/10/08 20:09:54;;;;;;;;;;;;;;;16.05;100.00;100729.09;10063141;29;19944;-66
2022/10/08 20:14:57;;;;;;;;;;;;;;;16.05;100.00;100722.97;10063073;29;19939;-65
2022/10/08 20:20:00;;;;;;;;;;;;;;;16.00;100.00;100714.41;10063026;29;19928;-66
2022/10/08 20:25:24;;;;;;;;;;;;;;;16.01;100.00;100727.44;10062491;29;19936;-68
2022/10/08 20:30:28;;;;;;;;;;;;;;;15.91;100.00;100735.59;10062392;29;19939;-66
2022/10/08 20:35:31;;;;;;;;;;;;;;;15.89;100.00;100740.84;10061919;29;19946;-66
2022/10/08 20:40:37;;;;;;;;;;;;;;;15.81;100.00;100747.19;10061637;29;19960;-68
2022/10/08 20:45:40;;;;;;;;;;;;;;;15.93;100.00;100747.75;10061844;29;19928;-68
2022/10/08 20:50:43;;;;;;;;;;;;;;;15.92;100.00;100751.28;9726248;29;10000549;-68
2022/10/08 20:55:47;;;;;;;;;;;;;;;15.97;100.00;100749.38;10061408;29;20350;-69
2022/10/08 21:00:50;;;;;;;;;;;;;;;15.81;100.00;100753.28;10061177;29;19932;-66
2022/10/08 21:05:54;;;;;;;;;;;;;;;15.72;100.00;100771.81;10061202;29;19940;-65
2022/10/08 21:11:02;;;;;;;;;;;;;;;15.73;100.00;100762.22;10061137;29;19938;-69
2022/10/08 21:16:06;;;;;;;;;;;;;;;15.81;100.00;100771.59;10061216;29;20026;-69
2022/10/08 21:21:11;;;;;;;;;;;;;;;15.72;100.00;100781.47;10060797;29;20453;-69
2022/10/08 21:26:16;;;;;;;;;;;;;;;15.68;100.00;100780.66;10060285;29;20307;-68
2022/10/08 21:31:20;;;;;;;;;;;;;;;15.60;100.00;100786.97;10060214;29;19960;-68
2022/10/08 21:36:24;;;;;;;;;;;;;;;15.58;100.00;100786.16;10060128;29;19928;-66
2022/10/08 21:41:30;;;;;;;;;;;;;;;15.66;100.00;100800.78;10059800;29;19963;-66
2022/10/08 21:46:34;;;;;;;;;;;;;;;15.63;100.00;100803.47;10059444;29;20291;-68
2022/10/08 21:51:37;;;;;;;;;;;;;;;15.64;100.00;100799.06;10059457;29;19928;-70
2022/10/08 21:56:42;;;;;;;;;;;;;;;15.59;100.00;100787.88;10060406;29;20027;-71
2022/10/08 22:01:46;;;;;;;;;;;;;;;15.48;100.00;100814.28;10062292;29;20337;-68
2022/10/08 22:06:50;;;;;;;;;;;;;;;15.46;100.00;100805.59;10062318;29;19939;-72
2022/10/08 22:11:55;;;;;;;;;;;;;;;15.36;100.00;100811.06;10062475;29;20231;-71
2022/10/08 22:16:58;;;;;;;;;;;;;;;15.16;100.00;100827.19;10062237;29;20380;-69
2022/10/08 22:22:01;;;;;;;;;;;;;;;15.16;100.00;100824.56;10062131;29;20354;-67
2022/10/08 22:27:06;;;;;;;;;;;;;;;15.05;100.00;100826.53;10061947;29;20023;-70
2022/10/08 22:32:09;;;;;;;;;;;;;;;15.08;100.00;100836.94;10062017;29;19938;-70
2022/10/08 22:37:12;;;;;;;;;;;;;;;14.87;100.00;100834.75;10061749;29;19935;-68
2022/10/08 22:42:16;;;;;;;;;;;;;;;14.86;100.00;100836.50;10061908;29;19928;-69
2022/10/08 22:47:19;;;;;;;;;;;;;;;14.78;100.00;100834.94;10061750;29;19928;-71
2022/10/08 22:52:23;;;;;;;;;;;;;;;14.68;100.00;100831.66;10061585;29;20031;-69
2022/10/08 22:57:27;;;;;;;;;;;;;;;14.67;100.00;100842.97;10062709;29;19940;-70
2022/10/08 23:02:30;;;;;;;;;;;;;;;14.72;100.00;100846.34;10068861;29;20234;-73
2022/10/08 23:07:33;;;;;;;;;;;;;;;14.57;100.00;100851.88;10068594;29;19928;-69
2022/10/08 23:12:38;;;;;;;;;;;;;;;14.49;100.00;100865.97;10068320;29;19939;-71
2022/10/08 23:17:41;;;;;;;;;;;;;;;14.55;100.00;100873.69;10068319;29;20357;-71
2022/10/08 23:22:44;;;;;;;;;;;;;;;14.42;100.00;100883.50;10068294;29;19951;-69
2022/10/08 23:27:49;;;;;;;;;;;;;;;14.38;100.00;100896.63;10068059;29;19938;-75
2022/10/08 23:32:52;;;;;;;;;;;;;;;14.26;100.00;100902.06;10068109;29;19934;-72
2022/10/08 23:37:55;;;;;;;;;;;;;;;14.28;100.00;100903.75;9729715;29;10000127;-66
2022/10/08 23:42:59;;;;;;;;;;;;;;;14.41;100.00;100904.44;10064699;29;20115;-71
2022/10/08 23:48:02;;;;;;;;;;;;;;;14.35;100.00;100920.19;10064111;29;19936;-73
2022/10/08 23:53:06;;;;;;;;;;;;;;;14.41;100.00;100925.31;10063981;29;20059;-71
2022/10/08 23:58:10;;;;;;;;;;;;;;;14.40;100.00;100928.81;10063694;29;19936;-75
